createdAt,value
2023-04-09T00:01:27.854Z,11.59
2023-04-09T00:03:55.767Z,11.59
2023-04-09T00:06:23.645Z,11.61
2023-04-09T00:08:51.974Z,11.61
2023-04-09T00:11:19.850Z,11.62
2023-04-09T00:13:47.698Z,11.66
2023-04-09T00:16:15.488Z,11.83
2023-04-09T00:18:43.266Z,11.91
2023-04-09T00:21:11.381Z,11.80
2023-04-09T00:23:39.161Z,11.70
2023-04-09T00:26:08.427Z,11.63
2023-04-09T00:28:36.770Z,11.38
2023-04-09T00:31:06.680Z,11.22
2023-04-09T00:33:34.509Z,11.20
2023-04-09T00:36:02.457Z,11.22
2023-04-09T00:38:30.685Z,11.09
2023-04-09T00:40:58.510Z,10.90
2023-04-09T00:43:27.195Z,10.96
2023-04-09T00:45:55.811Z,11.08
2023-04-09T00:48:23.794Z,10.96
2023-04-09T00:50:51.758Z,10.94
2023-04-09T00:53:20.411Z,11.04
2023-04-09T00:55:48.393Z,11.15
2023-04-09T00:58:16.189Z,11.27
2023-04-09T01:00:43.977Z,11.24
2023-04-09T01:03:12.007Z,11.23
2023-04-09T01:06:08.362Z,10.91
2023-04-09T01:09:08.179Z,10.89
2023-04-09T01:11:56.755Z,10.81
2023-04-09T01:14:30.887Z,10.78
2023-04-09T01:17:11.460Z,10.70
2023-04-09T01:19:42.968Z,10.75
2023-04-09T01:22:29.679Z,10.77
2023-04-09T01:25:28.721Z,10.86
2023-04-09T01:28:05.786Z,10.75
2023-04-09T01:30:34.145Z,10.70
2023-04-09T01:33:03.814Z,10.52
2023-04-09T01:35:31.933Z,10.67
2023-04-09T01:38:00.986Z,10.77
2023-04-09T01:40:29.002Z,10.82
2023-04-09T01:42:57.913Z,10.97
2023-04-09T01:45:26.370Z,10.93
2023-04-09T01:47:55.990Z,10.99
2023-04-09T01:50:24.044Z,10.96
2023-04-09T01:52:52.212Z,11.05
2023-04-09T01:55:20.099Z,11.12
2023-04-09T01:57:48.009Z,11.08
2023-04-09T02:00:16.573Z,11.06
2023-04-09T02:03:06.320Z,10.93
2023-04-09T02:05:44.698Z,11.01
2023-04-09T02:08:19.335Z,11.02
2023-04-09T02:10:53.831Z,11.10
2023-04-09T02:13:23.686Z,11.10
2023-04-09T02:15:52.580Z,11.04
2023-04-09T02:18:28.793Z,11.11
2023-04-09T02:20:57.449Z,10.97
2023-04-09T02:23:26.526Z,11.00
2023-04-09T02:25:54.578Z,11.00
2023-04-09T02:28:22.414Z,10.90
2023-04-09T02:30:52.782Z,10.87
2023-04-09T02:33:20.746Z,10.94
2023-04-09T02:35:48.790Z,10.95
2023-04-09T02:38:16.648Z,11.00
2023-04-09T02:40:44.429Z,11.18
2023-04-09T02:43:12.340Z,11.27
2023-04-09T02:45:40.084Z,11.16
2023-04-09T02:48:07.821Z,11.31
2023-04-09T02:50:36.712Z,11.35
2023-04-09T02:53:04.868Z,11.38
2023-04-09T02:55:32.974Z,11.31
2023-04-09T02:58:00.870Z,11.25
2023-04-09T03:00:28.649Z,11.20
2023-04-09T03:02:58.161Z,11.23
2023-04-09T03:05:26.252Z,11.18
2023-04-09T03:07:55.040Z,11.22
2023-04-09T03:10:22.887Z,11.19
2023-04-09T03:12:51.098Z,11.18
2023-04-09T03:15:18.909Z,11.19
2023-04-09T03:17:46.697Z,11.29
2023-04-09T03:20:14.840Z,11.27
2023-04-09T03:22:42.819Z,11.35
2023-04-09T03:25:26.003Z,11.19
2023-04-09T03:27:55.439Z,11.02
2023-04-09T03:30:35.749Z,10.89
2023-04-09T03:33:05.662Z,10.87
2023-04-09T03:35:38.235Z,10.64
2023-04-09T03:38:06.234Z,10.70
2023-04-09T03:40:34.100Z,10.82
2023-04-09T03:43:02.022Z,10.88
2023-04-09T03:45:30.045Z,10.85
2023-04-09T03:48:10.320Z,10.87
2023-04-09T03:50:42.250Z,10.94
2023-04-09T03:53:13.391Z,10.92
2023-04-09T03:55:42.078Z,10.89
2023-04-09T03:58:17.363Z,10.88
2023-04-09T04:00:45.832Z,10.86
2023-04-09T04:03:32.912Z,10.89
2023-04-09T04:06:13.494Z,10.94
2023-04-09T04:09:01.565Z,11.05
2023-04-09T04:11:39.667Z,11.02
2023-04-09T04:14:07.902Z,11.00
2023-04-09T04:16:35.776Z,10.90
2023-04-09T04:19:05.468Z,10.83
2023-04-09T04:21:39.890Z,10.91
2023-04-09T04:24:08.019Z,10.95
2023-04-09T04:26:35.839Z,10.86
2023-04-09T04:29:04.219Z,10.99
2023-04-09T04:31:52.241Z,10.93
2023-04-09T04:34:22.630Z,10.75
2023-04-09T04:36:58.490Z,10.78
2023-04-09T04:39:31.608Z,10.81
2023-04-09T04:42:10.483Z,10.85
2023-04-09T04:44:38.392Z,10.80
2023-04-09T04:47:16.084Z,10.66
2023-04-09T04:49:43.933Z,10.64
2023-04-09T04:52:11.957Z,10.83
2023-04-09T04:54:44.092Z,10.91
2023-04-09T04:57:17.082Z,10.84
2023-04-09T04:59:44.986Z,10.70
2023-04-09T05:02:14.530Z,10.83
2023-04-09T05:04:53.688Z,11.00
2023-04-09T05:07:28.970Z,10.90
2023-04-09T05:09:58.254Z,10.75
2023-04-09T05:12:26.642Z,10.98
2023-04-09T05:14:54.734Z,11.05
2023-04-09T05:17:22.579Z,11.05
2023-04-09T05:19:54.257Z,11.18
2023-04-09T05:22:28.819Z,11.24
2023-04-09T05:24:56.726Z,11.15
2023-04-09T05:27:26.239Z,11.05
2023-04-09T05:30:00.686Z,11.05
2023-04-09T05:32:29.175Z,11.02
2023-04-09T05:34:57.422Z,11.13
2023-04-09T05:37:27.027Z,11.08
2023-04-09T05:39:55.071Z,11.14
2023-04-09T05:42:22.944Z,11.00
2023-04-09T05:45:01.408Z,11.25
2023-04-09T05:47:29.461Z,10.91
2023-04-09T05:50:20.846Z,10.85
2023-04-09T05:52:51.762Z,10.96
2023-04-09T05:55:20.801Z,11.20
2023-04-09T05:57:57.411Z,10.92
2023-04-09T06:00:25.164Z,10.99
2023-04-09T06:02:53.021Z,11.13
2023-04-09T06:05:20.903Z,11.22
2023-04-09T06:07:49.144Z,11.01
2023-04-09T06:10:17.072Z,11.11
2023-04-09T06:12:45.056Z,11.13
2023-04-09T06:15:12.896Z,11.14
2023-04-09T06:17:41.086Z,11.36
2023-04-09T06:20:09.456Z,11.87
2023-04-09T06:22:37.649Z,11.80
2023-04-09T06:25:05.859Z,11.60
2023-04-09T06:27:33.838Z,11.67
2023-04-09T06:30:01.686Z,11.63
2023-04-09T06:32:29.787Z,11.48
2023-04-09T06:34:58.513Z,11.68
2023-04-09T06:37:26.347Z,11.41
2023-04-09T06:40:01.053Z,11.91
2023-04-09T06:42:29.424Z,11.75
2023-04-09T06:45:09.294Z,11.63
2023-04-09T06:47:37.371Z,11.75
2023-04-09T06:50:05.761Z,11.92
2023-04-09T06:52:33.565Z,11.74
2023-04-09T06:55:01.483Z,11.73
2023-04-09T06:57:29.253Z,11.62
2023-04-09T06:59:57.501Z,11.75
2023-04-09T07:02:25.555Z,11.74
2023-04-09T07:04:53.532Z,11.77
2023-04-09T07:07:24.308Z,11.98
2023-04-09T07:09:54.001Z,12.69
2023-04-09T07:12:32.216Z,12.49
2023-04-09T07:15:01.192Z,12.86
2023-04-09T07:17:29.602Z,12.30
2023-04-09T07:19:57.595Z,12.47
2023-04-09T07:22:27.430Z,12.42
2023-04-09T07:24:55.522Z,12.28
2023-04-09T07:27:25.453Z,12.67
2023-04-09T07:29:57.856Z,12.97
2023-04-09T07:32:28.225Z,12.92
2023-04-09T07:34:57.442Z,12.96
2023-04-09T07:37:25.702Z,12.82
2023-04-09T07:39:53.665Z,13.74
2023-04-09T07:42:21.996Z,13.13
2023-04-09T07:44:49.903Z,13.65
2023-04-09T07:47:17.722Z,13.44
2023-04-09T07:49:45.590Z,13.64
2023-04-09T07:52:13.814Z,13.63
2023-04-09T07:54:41.787Z,14.26
2023-04-09T07:57:09.599Z,14.40
2023-04-09T07:59:37.699Z,14.35
2023-04-09T08:02:05.827Z,14.15
2023-04-09T08:04:33.890Z,13.87
2023-04-09T08:07:01.894Z,13.88
2023-04-09T08:09:30.878Z,13.80
2023-04-09T08:11:59.270Z,14.12
2023-04-09T08:14:27.397Z,13.92
2023-04-09T08:16:55.584Z,14.06
2023-04-09T08:19:23.551Z,14.22
2023-04-09T08:21:51.527Z,13.82
2023-04-09T08:24:19.512Z,14.34
2023-04-09T08:26:47.550Z,14.33
2023-04-09T08:29:15.586Z,14.46
2023-04-09T08:31:43.756Z,14.61
2023-04-09T08:34:12.207Z,14.58
2023-04-09T08:36:40.210Z,14.41
2023-04-09T08:39:08.052Z,14.43
2023-04-09T08:41:42.251Z,14.47
2023-04-09T08:44:10.024Z,14.77
2023-04-09T08:46:37.902Z,14.95
2023-04-09T08:49:05.805Z,14.80
2023-04-09T08:51:33.598Z,14.76
2023-04-09T08:54:04.759Z,14.93
2023-04-09T08:56:33.118Z,14.80
2023-04-09T08:59:00.946Z,14.95
2023-04-09T09:01:30.756Z,15.22
2023-04-09T09:04:04.586Z,14.80
2023-04-09T09:06:35.722Z,15.16
2023-04-09T09:09:13.692Z,15.42
2023-04-09T09:11:43.770Z,15.31
2023-04-09T09:14:19.213Z,15.52
2023-04-09T09:16:56.391Z,15.58
2023-04-09T09:19:24.303Z,15.41
2023-04-09T09:21:59.445Z,15.33
2023-04-09T09:24:27.843Z,15.42
2023-04-09T09:26:57.714Z,15.28
2023-04-09T09:29:26.474Z,15.00
2023-04-09T09:31:55.731Z,14.77
2023-04-09T09:34:24.888Z,14.82
2023-04-09T09:36:52.927Z,14.35
2023-04-09T09:39:22.450Z,14.54
2023-04-09T09:42:08.308Z,15.68
2023-04-09T09:44:36.468Z,15.95
2023-04-09T09:47:04.934Z,15.87
2023-04-09T09:49:33.018Z,15.43
2023-04-09T09:52:03.647Z,16.24
2023-04-09T09:54:40.262Z,15.89
2023-04-09T10:10:31.316Z,16.36
2023-04-09T10:13:00.004Z,16.48
2023-04-09T10:15:31.200Z,16.57
2023-04-09T10:17:58.938Z,17.09
2023-04-09T10:20:32.770Z,17.03
2023-04-09T10:23:05.768Z,17.67
2023-04-09T10:25:34.222Z,17.41
2023-04-09T10:28:02.891Z,17.35
2023-04-09T10:30:37.542Z,16.31
2023-04-09T10:33:16.824Z,16.76
2023-04-09T10:35:47.294Z,17.17
2023-04-09T10:38:20.364Z,17.66
2023-04-09T10:40:52.152Z,18.45
2023-04-09T10:43:21.235Z,18.03
2023-04-09T10:45:53.427Z,17.63
2023-04-09T10:48:22.196Z,17.30
2023-04-09T10:50:54.394Z,17.78
2023-04-09T10:53:26.627Z,19.12
2023-04-09T10:55:55.493Z,18.74
2023-04-09T10:58:23.269Z,18.00
2023-04-09T11:00:53.798Z,17.97
2023-04-09T11:03:26.045Z,18.10
2023-04-09T11:06:06.063Z,18.18
2023-04-09T11:08:34.898Z,17.94
2023-04-09T11:11:03.624Z,18.02
2023-04-09T11:13:32.618Z,18.36
2023-04-09T11:16:01.598Z,18.35
2023-04-09T11:18:30.469Z,18.52
2023-04-09T11:21:01.194Z,18.24
2023-04-09T11:23:28.894Z,18.52
2023-04-09T11:25:56.861Z,18.22
2023-04-09T11:28:24.802Z,17.91
2023-04-09T11:30:52.535Z,18.08
2023-04-09T11:33:20.782Z,18.71
2023-04-09T11:35:49.110Z,19.12
2023-04-09T11:38:16.941Z,18.45
2023-04-09T11:40:48.943Z,18.34
2023-04-09T11:43:18.151Z,18.98
2023-04-09T11:45:49.591Z,19.16
2023-04-09T11:48:21.997Z,19.25
2023-04-09T11:50:50.860Z,18.97
2023-04-09T11:53:22.188Z,18.69
2023-04-09T11:55:52.339Z,18.79
2023-04-09T11:58:28.098Z,18.20
2023-04-09T12:00:58.973Z,17.75
2023-04-09T12:03:30.902Z,17.52
2023-04-09T12:06:03.021Z,17.79
2023-04-09T12:08:31.549Z,17.71
2023-04-09T12:11:11.904Z,16.67
2023-04-09T12:13:45.845Z,16.96
2023-04-09T12:16:14.567Z,17.13
2023-04-09T12:18:42.657Z,16.89
2023-04-09T12:21:10.532Z,17.37
2023-04-09T12:23:38.395Z,17.50
2023-04-09T12:26:06.101Z,17.22
2023-04-09T12:28:33.808Z,16.91
2023-04-09T12:31:03.623Z,17.81
2023-04-09T12:33:32.466Z,18.06
2023-04-09T12:36:00.373Z,18.66
2023-04-09T12:38:28.065Z,19.20
2023-04-09T12:40:55.953Z,19.61
2023-04-09T12:43:23.694Z,20.43
2023-04-09T12:45:52.945Z,20.06
2023-04-09T12:48:20.854Z,20.73
2023-04-09T12:50:48.694Z,20.51
2023-04-09T12:53:16.443Z,20.80
2023-04-09T12:55:44.138Z,20.56
2023-04-09T12:58:11.787Z,20.47
2023-04-09T13:00:39.418Z,20.72
2023-04-09T13:03:07.265Z,20.03
2023-04-09T13:05:35.800Z,19.38
2023-04-09T13:08:03.676Z,19.29
2023-04-09T13:10:31.657Z,19.07
2023-04-09T13:12:59.470Z,18.57
2023-04-09T13:15:27.605Z,18.15
2023-04-09T13:17:56.423Z,17.55
2023-04-09T13:20:24.302Z,17.69
2023-04-09T13:22:52.536Z,17.55
2023-04-09T13:25:20.636Z,17.53
2023-04-09T13:27:48.720Z,17.74
2023-04-09T13:30:16.484Z,17.73
2023-04-09T13:32:44.293Z,17.33
2023-04-09T13:35:12.134Z,17.52
2023-04-09T13:37:39.966Z,17.50
2023-04-09T13:40:09.315Z,17.59
2023-04-09T13:42:37.745Z,18.00
2023-04-09T13:45:06.142Z,18.07
2023-04-09T13:47:33.925Z,18.04
2023-04-09T13:50:01.695Z,17.82
2023-04-09T13:52:29.964Z,18.21
2023-04-09T13:54:57.727Z,18.02
2023-04-09T13:57:25.688Z,18.47
2023-04-09T13:59:53.444Z,18.70
2023-04-09T14:02:21.463Z,18.61
2023-04-09T14:04:49.338Z,18.15
2023-04-09T14:07:17.070Z,17.79
2023-04-09T14:09:44.800Z,17.95
2023-04-09T14:12:12.562Z,18.02
2023-04-09T14:14:40.268Z,18.09
2023-04-09T14:17:08.018Z,18.04
2023-04-09T14:19:35.777Z,17.93
2023-04-09T14:22:03.642Z,17.82
2023-04-09T14:24:31.335Z,17.57
2023-04-09T14:26:59.144Z,17.68
2023-04-09T14:29:26.899Z,17.82
2023-04-09T14:31:57.145Z,17.94
2023-04-09T14:34:25.497Z,17.86
2023-04-09T14:36:53.281Z,17.87
2023-04-09T14:39:21.332Z,17.87
2023-04-09T14:41:49.040Z,17.56
2023-04-09T14:44:16.756Z,17.60
2023-04-09T14:46:44.945Z,17.79
2023-04-09T14:49:12.918Z,17.96
2023-04-09T14:51:40.639Z,17.95
2023-04-09T14:54:08.367Z,17.78
2023-04-09T14:56:36.276Z,17.37
2023-04-09T14:59:04.468Z,17.24
2023-04-09T15:01:33.440Z,17.14
2023-04-09T15:04:01.318Z,17.18
2023-04-09T15:06:29.859Z,17.09
2023-04-09T15:08:57.533Z,16.90
2023-04-09T15:11:25.509Z,16.79
2023-04-09T15:13:53.250Z,16.75
2023-04-09T15:16:24.245Z,16.73
2023-04-09T15:18:52.958Z,16.49
2023-04-09T15:21:21.756Z,16.32
2023-04-09T15:23:53.112Z,16.47
2023-04-09T15:26:20.987Z,16.07
2023-04-09T15:28:48.749Z,15.98
2023-04-09T15:31:16.602Z,16.10
2023-04-09T15:33:44.962Z,16.15
2023-04-09T15:36:12.992Z,15.63
2023-04-09T15:38:40.987Z,15.82
2023-04-09T15:41:08.689Z,15.76
2023-04-09T15:43:36.742Z,15.76
2023-04-09T15:46:09.523Z,15.31
2023-04-09T15:48:47.416Z,15.47
2023-04-09T15:51:17.294Z,15.42
2023-04-09T15:53:45.780Z,15.45
2023-04-09T15:56:17.121Z,15.41
2023-04-09T15:58:45.171Z,15.36
2023-04-09T16:01:13.493Z,15.14
2023-04-09T16:03:42.450Z,15.51
2023-04-09T16:06:14.698Z,15.36
2023-04-09T16:08:42.646Z,15.37
2023-04-09T16:11:11.097Z,15.00
2023-04-09T16:13:42.564Z,15.19
2023-04-09T16:16:35.292Z,14.87
2023-04-09T16:19:07.355Z,14.62
2023-04-09T16:21:35.262Z,14.62
2023-04-09T16:24:04.297Z,14.49
2023-04-09T16:26:32.690Z,14.25
2023-04-09T16:29:04.210Z,14.12
2023-04-09T16:31:35.601Z,14.15
2023-04-09T16:34:04.175Z,14.10
2023-04-09T16:36:33.988Z,14.13
2023-04-09T16:39:02.004Z,14.22
2023-04-09T16:41:30.711Z,14.21
2023-04-09T16:44:01.623Z,14.54
2023-04-09T16:46:29.863Z,14.69
2023-04-09T16:48:58.785Z,14.72
2023-04-09T16:51:27.975Z,14.25
2023-04-09T16:53:58.131Z,14.10
2023-04-09T16:56:26.855Z,13.95
2023-04-09T16:58:55.426Z,14.06
2023-04-09T17:01:23.695Z,14.14
2023-04-09T17:03:51.702Z,13.87
2023-04-09T17:06:19.717Z,13.96
2023-04-09T17:08:47.599Z,14.07
2023-04-09T17:11:17.254Z,14.03
2023-04-09T17:13:45.292Z,14.10
2023-04-09T17:16:14.522Z,14.00
2023-04-09T17:18:42.484Z,14.07
2023-04-09T17:21:10.501Z,14.06
2023-04-09T17:23:38.408Z,14.05
2023-04-09T17:26:08.755Z,14.08
2023-04-09T17:28:36.723Z,13.97
2023-04-09T17:31:12.641Z,14.04
2023-04-09T17:33:40.695Z,14.10
2023-04-09T17:36:08.620Z,13.93
2023-04-09T17:38:36.486Z,13.83
2023-04-09T17:41:06.360Z,13.81
2023-04-09T17:43:35.483Z,13.61
2023-04-09T17:46:03.870Z,13.62
2023-04-09T17:48:32.126Z,13.62
2023-04-09T17:51:00.241Z,13.51
2023-04-09T17:53:28.547Z,13.63
2023-04-09T17:55:56.684Z,13.54
2023-04-09T17:58:25.167Z,13.52
2023-04-09T18:00:54.073Z,13.69
2023-04-09T18:03:22.350Z,13.72
2023-04-09T18:05:50.909Z,13.88
2023-04-09T18:08:19.000Z,13.54
2023-04-09T18:11:04.781Z,13.49
2023-04-09T18:13:39.116Z,13.70
2023-04-09T18:16:12.713Z,13.70
2023-04-09T18:18:40.867Z,13.62
2023-04-09T18:21:08.724Z,13.49
2023-04-09T18:23:36.590Z,13.24
2023-04-09T18:26:04.689Z,13.42
2023-04-09T18:28:34.150Z,13.32
2023-04-09T18:31:02.314Z,13.54
2023-04-09T18:33:30.384Z,13.35
2023-04-09T18:36:00.874Z,13.46
2023-04-09T18:38:29.713Z,13.23
2023-04-09T18:40:57.837Z,13.36
2023-04-09T18:43:26.114Z,13.25
2023-04-09T18:45:55.283Z,13.31
2023-04-09T18:48:23.631Z,13.12
2023-04-09T18:50:51.857Z,13.19
2023-04-09T18:53:20.008Z,13.21
2023-04-09T18:55:48.324Z,13.27
2023-04-09T18:58:17.803Z,13.36
2023-04-09T19:00:50.949Z,13.04
2023-04-09T19:03:20.094Z,13.04
2023-04-09T19:05:48.697Z,13.13
2023-04-09T19:08:20.013Z,13.06
2023-04-09T19:10:48.243Z,13.17
2023-04-09T19:13:17.593Z,12.86
2023-04-09T19:15:46.367Z,12.93
2023-04-09T19:18:14.782Z,12.98
2023-04-09T19:20:45.125Z,12.99
2023-04-09T19:23:20.324Z,12.98
2023-04-09T19:25:55.831Z,12.93
2023-04-09T19:28:26.940Z,12.89
2023-04-09T19:31:24.456Z,13.03
2023-04-09T19:33:57.697Z,13.03
2023-04-09T19:36:32.380Z,13.03
2023-04-09T19:39:00.447Z,12.85
2023-04-09T19:41:29.363Z,12.99
2023-04-09T19:43:57.561Z,13.00
2023-04-09T19:46:26.158Z,12.90
2023-04-09T19:48:54.330Z,13.05
2023-04-09T19:51:22.709Z,13.01
2023-04-09T19:53:52.171Z,13.05
2023-04-09T19:56:21.973Z,12.88
2023-04-09T19:58:50.600Z,13.01
2023-04-09T20:01:20.183Z,13.01
2023-04-09T20:03:48.880Z,12.90
2023-04-09T20:06:17.095Z,12.95
2023-04-09T20:08:45.506Z,12.87
2023-04-09T20:11:22.181Z,12.89
2023-04-09T20:13:50.122Z,12.99
2023-04-09T20:16:17.966Z,12.86
2023-04-09T20:18:46.944Z,12.65
2023-04-09T20:21:15.672Z,12.71
2023-04-09T20:23:45.349Z,12.46
2023-04-09T20:26:18.807Z,12.39
2023-04-09T20:28:50.417Z,12.56
2023-04-09T20:31:21.734Z,12.74
2023-04-09T20:34:00.951Z,12.56
2023-04-09T20:36:48.381Z,12.63
2023-04-09T20:39:18.482Z,12.44
2023-04-09T20:41:53.611Z,12.48
2023-04-09T20:44:26.761Z,12.57
2023-04-09T20:46:59.078Z,12.69
2023-04-09T20:49:33.928Z,12.67
2023-04-09T20:52:03.171Z,12.58
2023-04-09T20:54:34.584Z,12.45
2023-04-09T20:57:03.668Z,12.38
2023-04-09T20:59:32.597Z,12.40
2023-04-09T21:02:13.558Z,12.17
2023-04-09T21:04:49.092Z,12.23
2023-04-09T21:07:18.128Z,12.29
2023-04-09T21:09:46.205Z,12.31
2023-04-09T21:12:14.003Z,12.22
2023-04-09T21:14:41.893Z,12.20
2023-04-09T21:17:10.127Z,12.09
2023-04-09T21:19:37.949Z,11.86
2023-04-09T21:22:05.854Z,11.96
2023-04-09T21:24:35.399Z,12.06
2023-04-09T21:27:07.101Z,11.82
2023-04-09T21:29:36.999Z,11.82
2023-04-09T21:32:04.968Z,11.97
2023-04-09T21:34:35.333Z,11.85
2023-04-09T21:37:03.646Z,11.87
2023-04-09T21:39:31.856Z,11.86
2023-04-09T21:41:59.593Z,11.83
2023-04-09T21:44:27.373Z,11.72
2023-04-09T21:46:55.157Z,11.67
2023-04-09T21:49:23.319Z,11.76
2023-04-09T21:51:52.980Z,11.89
2023-04-09T21:54:21.390Z,11.75
2023-04-09T21:56:50.566Z,11.74
2023-04-09T21:59:18.413Z,11.82
2023-04-09T22:01:47.557Z,11.91
2023-04-09T22:04:17.282Z,11.62
2023-04-09T22:06:48.339Z,11.69
2023-04-09T22:09:16.055Z,11.82
2023-04-09T22:11:43.852Z,11.76
2023-04-09T22:14:12.076Z,11.74
2023-04-09T22:16:39.869Z,11.85
2023-04-09T22:19:08.823Z,11.78
2023-04-09T22:21:36.643Z,11.73
2023-04-09T22:24:04.395Z,11.81
2023-04-09T22:26:32.631Z,11.74
2023-04-09T22:29:00.842Z,11.69
2023-04-09T22:31:28.750Z,11.66
2023-04-09T22:33:57.596Z,11.65
2023-04-09T22:36:27.400Z,11.85
2023-04-09T22:38:55.431Z,11.79
2023-04-09T22:41:23.401Z,11.89
2023-04-09T22:43:52.487Z,11.79
2023-04-09T22:46:20.437Z,11.73
2023-04-09T22:48:48.612Z,11.94
2023-04-09T22:51:16.732Z,11.90
2023-04-09T22:53:46.514Z,11.73
2023-04-09T22:56:14.969Z,11.74
2023-04-09T22:58:42.869Z,11.77
2023-04-09T23:01:10.800Z,11.70
2023-04-09T23:03:38.721Z,11.67
2023-04-09T23:06:06.776Z,11.74
2023-04-09T23:08:34.547Z,11.72
2023-04-09T23:11:02.317Z,11.59
2023-04-09T23:13:30.489Z,11.76
2023-04-09T23:15:58.271Z,11.76
2023-04-09T23:18:26.035Z,11.58
2023-04-09T23:20:53.747Z,11.58
2023-04-09T23:23:21.416Z,11.61
2023-04-09T23:25:49.148Z,11.65
2023-04-09T23:28:16.892Z,11.66
2023-04-09T23:30:44.621Z,11.69
2023-04-09T23:33:12.405Z,11.60
2023-04-09T23:35:40.911Z,11.54
2023-04-09T23:38:08.735Z,11.54
2023-04-09T23:40:36.652Z,11.53
2023-04-09T23:43:04.646Z,11.39
2023-04-09T23:45:32.715Z,11.52
2023-04-09T23:48:00.669Z,11.55
2023-04-09T23:50:28.976Z,11.48
2023-04-09T23:53:00.037Z,11.58
2023-04-09T23:55:28.136Z,11.34
2023-04-09T23:57:56.628Z,11.31
